createdAt,value
2023-04-29T00:00:14.112Z,6.07
2023-04-29T00:02:42.500Z,9.05
2023-04-29T00:05:11.128Z,7.95
2023-04-29T00:07:39.625Z,5.75
2023-04-29T00:10:10.131Z,6.63
2023-04-29T00:12:38.156Z,5.85
2023-04-29T00:15:07.004Z,4.15
2023-04-29T00:17:35.062Z,7.20
2023-04-29T00:20:03.268Z,5.10
2023-04-29T00:22:31.316Z,6.93
2023-04-29T00:24:59.357Z,5.10
2023-04-29T00:27:28.773Z,8.40
2023-04-29T00:29:57.225Z,6.28
2023-04-29T00:32:25.470Z,5.70
2023-04-29T00:34:53.748Z,6.43
2023-04-29T00:37:21.848Z,6.30
2023-04-29T00:39:50.105Z,5.22
2023-04-29T00:42:18.332Z,8.32
2023-04-29T00:44:47.755Z,4.43
2023-04-29T00:47:15.853Z,3.88
2023-04-29T00:49:44.647Z,5.10
2023-04-29T00:52:14.306Z,5.85
2023-04-29T00:54:42.689Z,5.30
2023-04-29T00:57:11.239Z,5.53
2023-04-29T00:59:39.685Z,6.78
2023-04-29T01:02:09.317Z,4.80
2023-04-29T01:04:37.632Z,4.32
2023-04-29T01:07:15.588Z,5.05
2023-04-29T01:10:04.145Z,21.73
2023-04-29T01:12:38.735Z,17.40
2023-04-29T01:15:12.436Z,29.10
2023-04-29T01:17:50.642Z,15.83
2023-04-29T01:20:20.313Z,3.83
2023-04-29T01:22:48.871Z,9.07
2023-04-29T01:25:18.394Z,5.13
2023-04-29T01:27:54.689Z,22.50
2023-04-29T01:30:32.562Z,7.85
2023-04-29T01:33:07.939Z,5.20
2023-04-29T01:35:46.857Z,8.73
2023-04-29T01:38:24.642Z,6.45
2023-04-29T01:41:01.408Z,7.97
2023-04-29T01:43:33.872Z,8.88
2023-04-29T01:46:04.298Z,7.23
2023-04-29T01:48:32.858Z,6.22
2023-04-29T01:51:01.433Z,6.93
2023-04-29T01:53:29.537Z,5.95
2023-04-29T01:55:58.945Z,8.05
2023-04-29T01:58:28.120Z,7.60
2023-04-29T02:00:56.402Z,5.57
2023-04-29T02:03:24.714Z,7.72
2023-04-29T02:05:53.009Z,7.53
2023-04-29T02:08:21.163Z,4.77
2023-04-29T02:10:55.835Z,4.28
2023-04-29T02:13:25.399Z,5.70
2023-04-29T02:15:53.512Z,8.17
2023-04-29T02:18:21.832Z,8.90
2023-04-29T02:20:51.761Z,7.67
2023-04-29T02:23:19.842Z,7.87
2023-04-29T02:25:47.985Z,8.57
2023-04-29T02:28:16.054Z,7.57
2023-04-29T02:30:47.042Z,6.37
2023-04-29T02:33:15.126Z,7.37
2023-04-29T02:35:43.308Z,8.83
2023-04-29T02:38:12.083Z,9.50
2023-04-29T02:40:43.235Z,17.90
2023-04-29T02:43:12.009Z,6.75
2023-04-29T02:45:40.754Z,6.40
2023-04-29T02:48:10.245Z,6.90
2023-04-29T02:50:38.349Z,7.50
2023-04-29T02:53:06.422Z,11.13
2023-04-29T02:55:34.436Z,8.30
2023-04-29T02:58:03.953Z,7.85
2023-04-29T03:00:32.114Z,7.35
2023-04-29T03:03:00.249Z,8.20
2023-04-29T03:05:29.953Z,6.47
2023-04-29T03:07:58.061Z,7.53
2023-04-29T03:10:26.177Z,8.43
2023-04-29T03:12:54.256Z,9.35
2023-04-29T03:15:22.397Z,6.90
2023-04-29T03:17:50.502Z,8.75
2023-04-29T03:20:18.546Z,8.57
2023-04-29T03:22:48.109Z,8.32
2023-04-29T03:25:16.216Z,9.93
2023-04-29T03:27:44.258Z,9.80
2023-04-29T03:30:12.921Z,12.70
2023-04-29T03:32:40.959Z,9.47
2023-04-29T03:35:14.159Z,9.40
2023-04-29T03:37:44.529Z,9.02
2023-04-29T03:40:15.274Z,8.33
2023-04-29T03:42:43.399Z,7.90
2023-04-29T03:45:13.133Z,9.50
2023-04-29T03:47:41.304Z,12.70
2023-04-29T03:50:09.976Z,15.57
2023-04-29T03:52:38.102Z,9.98
2023-04-29T03:55:06.987Z,12.60
2023-04-29T03:57:36.452Z,10.00
2023-04-29T04:00:04.878Z,12.85
2023-04-29T04:02:33.093Z,9.65
2023-04-29T04:05:01.294Z,11.82
2023-04-29T04:07:29.401Z,10.55
2023-04-29T04:09:57.403Z,15.55
2023-04-29T04:12:25.617Z,11.88
2023-04-29T04:14:55.541Z,14.55
2023-04-29T04:17:23.531Z,10.73
2023-04-29T04:19:51.749Z,12.10
2023-04-29T04:22:20.287Z,11.60
2023-04-29T04:24:48.288Z,13.00
2023-04-29T04:27:16.398Z,12.43
2023-04-29T04:29:44.556Z,15.55
2023-04-29T04:32:14.063Z,14.43
2023-04-29T04:34:42.103Z,13.10
2023-04-29T04:37:10.252Z,13.02
2023-04-29T04:39:38.297Z,16.17
2023-04-29T04:42:06.873Z,14.52
2023-04-29T04:44:34.966Z,14.48
2023-04-29T04:47:03.213Z,12.55
2023-04-29T04:49:32.654Z,13.07
2023-04-29T04:52:00.754Z,15.63
2023-04-29T04:54:28.880Z,17.45
2023-04-29T04:56:56.941Z,11.93
2023-04-29T04:59:25.433Z,12.85
2023-04-29T05:01:53.596Z,13.67
2023-04-29T05:04:21.903Z,14.52
2023-04-29T05:06:51.622Z,14.20
2023-04-29T05:09:19.736Z,16.08
2023-04-29T05:11:47.949Z,14.57
2023-04-29T05:14:16.454Z,14.52
2023-04-29T05:16:45.368Z,15.27
2023-04-29T05:19:13.770Z,13.00
2023-04-29T05:21:41.816Z,13.38
2023-04-29T05:24:11.395Z,13.70
2023-04-29T05:26:39.505Z,13.85
2023-04-29T05:29:07.571Z,15.60
2023-04-29T05:31:35.747Z,14.55
2023-04-29T05:34:05.886Z,14.38
2023-04-29T05:36:33.937Z,16.77
2023-04-29T05:39:02.026Z,14.02
2023-04-29T05:41:31.608Z,14.88
2023-04-29T05:43:59.842Z,16.25
2023-04-29T05:46:28.095Z,15.30
2023-04-29T05:48:57.892Z,13.82
2023-04-29T05:51:26.187Z,13.10
2023-04-29T05:53:54.327Z,15.48
2023-04-29T05:56:22.512Z,11.57
2023-04-29T05:58:52.253Z,11.73
2023-04-29T06:01:20.339Z,11.50
2023-04-29T06:03:48.536Z,11.77
2023-04-29T06:06:17.092Z,12.88
2023-04-29T06:08:45.270Z,8.38
2023-04-29T06:11:13.407Z,14.93
2023-04-29T06:13:41.557Z,14.27
2023-04-29T06:16:11.221Z,15.30
2023-04-29T06:18:39.329Z,12.77
2023-04-29T06:21:07.555Z,11.75
2023-04-29T06:23:35.762Z,12.13
2023-04-29T06:26:04.075Z,16.85
2023-04-29T06:28:32.256Z,12.80
2023-04-29T06:31:00.295Z,12.48
2023-04-29T06:33:30.508Z,10.02
2023-04-29T06:35:58.639Z,13.02
2023-04-29T06:38:26.661Z,15.95
2023-04-29T06:40:54.746Z,13.48
2023-04-29T06:43:22.824Z,10.48
2023-04-29T06:45:51.061Z,11.32
2023-04-29T06:48:19.212Z,12.23
2023-04-29T06:50:55.936Z,11.70
2023-04-29T06:53:24.819Z,11.65
2023-04-29T06:55:52.957Z,10.63
2023-04-29T06:58:21.484Z,10.95
2023-04-29T07:00:52.018Z,9.32
2023-04-29T07:03:20.248Z,10.63
2023-04-29T07:05:48.564Z,13.38
2023-04-29T07:08:18.133Z,11.27
2023-04-29T07:10:46.734Z,14.40
2023-04-29T07:13:14.815Z,11.55
2023-04-29T07:15:42.861Z,12.05
2023-04-29T07:18:11.109Z,11.45
2023-04-29T07:20:39.478Z,11.27
2023-04-29T07:23:07.560Z,9.30
2023-04-29T07:25:37.058Z,9.30
2023-04-29T07:28:05.150Z,13.30
2023-04-29T07:30:33.366Z,10.50
2023-04-29T07:33:01.674Z,11.80
2023-04-29T07:35:29.841Z,12.10
2023-04-29T07:37:58.100Z,11.18
2023-04-29T07:40:26.299Z,9.90
2023-04-29T07:42:55.856Z,8.35
2023-04-29T07:45:23.853Z,10.70
2023-04-29T07:47:52.054Z,9.95
2023-04-29T07:50:20.179Z,7.97
2023-04-29T07:52:48.246Z,7.50
2023-04-29T07:55:16.345Z,10.07
2023-04-29T07:57:44.338Z,10.55
2023-04-29T08:00:14.633Z,7.72
2023-04-29T08:02:42.978Z,7.32
2023-04-29T08:05:11.587Z,8.77
2023-04-29T08:07:39.960Z,9.95
2023-04-29T08:10:09.073Z,8.63
2023-04-29T08:12:37.068Z,8.82
2023-04-29T08:15:07.106Z,8.35
2023-04-29T08:17:37.849Z,7.80
2023-04-29T08:20:08.078Z,11.77
2023-04-29T08:22:36.587Z,9.20
2023-04-29T08:25:05.736Z,7.60
2023-04-29T08:27:33.868Z,6.60
2023-04-29T08:30:01.942Z,7.55
2023-04-29T08:32:30.102Z,5.75
2023-04-29T08:34:59.621Z,7.70
2023-04-29T08:37:27.775Z,10.88
2023-04-29T08:39:55.844Z,9.60
2023-04-29T08:42:34.697Z,8.25
2023-04-29T08:45:03.906Z,7.95
2023-04-29T08:47:33.059Z,10.18
2023-04-29T08:50:05.301Z,8.35
2023-04-29T08:52:33.576Z,8.60
2023-04-29T08:55:02.678Z,10.15
2023-04-29T08:57:39.586Z,10.60
2023-04-29T09:00:11.215Z,8.00
2023-04-29T09:02:44.780Z,9.63
2023-04-29T09:05:14.598Z,13.32
2023-04-29T09:07:43.519Z,14.43
2023-04-29T09:10:12.294Z,12.68
2023-04-29T09:12:40.482Z,13.95
2023-04-29T09:15:09.560Z,15.65
2023-04-29T09:17:45.258Z,13.38
2023-04-29T09:20:31.353Z,15.18
2023-04-29T09:23:01.458Z,17.17
2023-04-29T09:25:30.010Z,21.17
2023-04-29T09:27:58.294Z,16.23
2023-04-29T09:30:26.979Z,13.90
2023-04-29T09:33:09.403Z,16.33
2023-04-29T09:35:42.038Z,16.30
2023-04-29T09:38:12.212Z,17.83
2023-04-29T09:40:54.371Z,18.27
2023-04-29T09:43:26.459Z,18.10
2023-04-29T09:45:54.679Z,21.13
2023-04-29T09:48:23.125Z,19.05
2023-04-29T09:51:03.561Z,21.10
2023-04-29T09:53:32.405Z,20.45
2023-04-29T09:56:02.496Z,26.52
2023-04-29T09:58:34.157Z,23.60
2023-04-29T10:01:04.661Z,25.25
2023-04-29T10:03:34.948Z,21.13
2023-04-29T10:06:06.403Z,22.58
2023-04-29T10:08:38.112Z,24.55
2023-04-29T10:11:06.418Z,26.45
2023-04-29T10:13:38.590Z,23.80
2023-04-29T10:16:14.957Z,26.27
2023-04-29T10:18:46.145Z,29.55
2023-04-29T10:21:16.173Z,31.88
2023-04-29T10:23:45.818Z,25.80
2023-04-29T10:26:14.842Z,31.67
2023-04-29T10:28:46.139Z,32.35
2023-04-29T10:31:16.888Z,26.90
2023-04-29T10:33:46.238Z,29.38
2023-04-29T10:36:17.210Z,29.38
2023-04-29T10:38:52.452Z,30.25
2023-04-29T10:41:25.512Z,29.80
2023-04-29T10:43:54.135Z,32.20
2023-04-29T10:46:23.845Z,39.28
2023-04-29T10:48:57.516Z,47.30
2023-04-29T10:51:34.737Z,53.95
2023-04-29T10:54:05.220Z,35.05
2023-04-29T10:56:41.453Z,39.50
2023-04-29T10:59:14.500Z,43.15
2023-04-29T11:01:47.360Z,38.90
2023-04-29T11:04:16.273Z,42.53
2023-04-29T11:06:53.097Z,34.08
2023-04-29T11:09:25.638Z,38.50
2023-04-29T11:12:03.032Z,27.48
2023-04-29T11:14:37.675Z,63.22
2023-04-29T11:17:10.577Z,19.60
2023-04-29T11:19:43.024Z,44.58
2023-04-29T11:22:14.912Z,16.08
2023-04-29T11:24:57.723Z,14.55
2023-04-29T11:27:28.242Z,11.52
2023-04-29T11:29:58.825Z,18.08
2023-04-29T11:32:28.075Z,15.75
2023-04-29T11:34:56.778Z,12.63
2023-04-29T11:37:27.603Z,12.77
2023-04-29T11:40:02.289Z,12.02
2023-04-29T11:42:30.673Z,13.55
2023-04-29T11:45:00.437Z,14.18
2023-04-29T11:47:30.595Z,14.38
2023-04-29T11:50:08.031Z,13.10
2023-04-29T11:52:40.261Z,10.63
2023-04-29T11:55:10.586Z,10.93
2023-04-29T11:57:39.200Z,9.98
2023-04-29T12:00:10.642Z,11.85
2023-04-29T12:02:38.913Z,10.43
2023-04-29T12:05:08.726Z,11.02
2023-04-29T12:07:38.443Z,17.05
2023-04-29T12:10:10.519Z,13.30
2023-04-29T12:12:41.049Z,11.32
2023-04-29T12:15:10.934Z,16.20
2023-04-29T12:17:39.274Z,10.90
2023-04-29T12:20:09.176Z,11.85
2023-04-29T12:22:38.963Z,10.32
2023-04-29T12:25:09.865Z,9.02
2023-04-29T12:27:42.175Z,10.13
2023-04-29T12:30:12.359Z,10.75
2023-04-29T12:32:42.158Z,11.50
2023-04-29T12:35:17.908Z,9.82
2023-04-29T12:37:51.451Z,9.55
2023-04-29T12:40:21.048Z,8.07
2023-04-29T12:42:49.333Z,10.93
2023-04-29T12:45:32.126Z,11.05
2023-04-29T12:48:00.955Z,19.33
2023-04-29T12:50:32.822Z,10.80
2023-04-29T12:53:02.915Z,10.20
2023-04-29T12:55:31.093Z,9.07
2023-04-29T12:58:01.069Z,11.38
2023-04-29T13:00:29.384Z,8.18
2023-04-29T13:02:58.596Z,9.77
2023-04-29T13:05:27.265Z,9.55
2023-04-29T13:07:55.632Z,5.60
2023-04-29T13:10:25.570Z,8.07
2023-04-29T13:12:53.553Z,8.95
2023-04-29T13:15:21.640Z,10.10
2023-04-29T13:17:49.923Z,8.70
2023-04-29T13:20:18.204Z,9.85
2023-04-29T13:22:46.423Z,9.50
2023-04-29T13:25:16.404Z,14.80
2023-04-29T13:27:45.929Z,16.50
2023-04-29T13:30:14.739Z,9.57
2023-04-29T13:32:46.504Z,14.95
2023-04-29T13:35:21.741Z,12.00
2023-04-29T13:37:50.077Z,16.08
2023-04-29T13:40:21.150Z,21.30
2023-04-29T13:42:59.624Z,26.92
2023-04-29T13:45:32.862Z,26.67
2023-04-29T13:53:31.744Z,24.27
2023-04-29T13:56:46.397Z,24.52
2023-04-29T13:59:28.746Z,42.55
2023-04-29T14:04:01.252Z,108.53
2023-04-29T14:06:30.490Z,104.80
2023-04-29T14:08:58.519Z,88.60
2023-04-29T14:11:26.794Z,161.35
2023-04-29T14:13:56.315Z,122.00
2023-04-29T14:16:24.406Z,164.35
2023-04-29T14:18:52.497Z,106.75
2023-04-29T14:21:22.408Z,108.05
2023-04-29T14:23:50.571Z,105.97
2023-04-29T14:28:49.670Z,86.40
2023-04-29T14:31:19.103Z,141.05
2023-04-29T14:33:48.670Z,95.47
2023-04-29T14:36:16.647Z,92.55
2023-04-29T14:38:44.724Z,112.85
2023-04-29T14:41:12.763Z,44.42
2023-04-29T14:43:41.776Z,36.40
2023-04-29T14:46:10.292Z,48.28
2023-04-29T14:48:40.124Z,33.35
2023-04-29T14:51:08.423Z,35.10
2023-04-29T14:53:36.629Z,62.67
2023-04-29T14:56:04.809Z,52.67
2023-04-29T14:58:32.881Z,38.70
2023-04-29T15:01:01.237Z,26.20
2023-04-29T15:03:29.412Z,56.17
2023-04-29T15:05:59.160Z,48.70
2023-04-29T15:08:27.596Z,105.40
2023-04-29T15:10:55.634Z,104.47
2023-04-29T15:13:23.831Z,94.00
2023-04-29T15:15:52.013Z,64.30
2023-04-29T15:18:20.054Z,107.70
2023-04-29T15:20:48.071Z,122.88
2023-04-29T15:23:17.704Z,132.30
2023-04-29T15:25:46.304Z,142.60
2023-04-29T15:28:15.278Z,136.40
2023-04-29T15:30:43.456Z,157.32
2023-04-29T15:33:12.116Z,175.20
2023-04-29T15:35:40.559Z,177.18
2023-04-29T15:38:08.958Z,187.25
2023-04-29T15:40:38.356Z,182.82
2023-04-29T15:43:07.366Z,183.43
2023-04-29T15:45:35.408Z,165.90
2023-04-29T15:48:03.498Z,172.73
2023-04-29T15:50:31.539Z,154.05
2023-04-29T15:53:00.609Z,144.55
2023-04-29T15:55:28.610Z,136.07
2023-04-29T15:57:58.087Z,128.32
2023-04-29T16:00:26.292Z,123.03
2023-04-29T16:02:54.836Z,132.18
2023-04-29T16:05:23.061Z,134.48
2023-04-29T16:07:51.041Z,118.22
2023-04-29T16:10:19.058Z,146.05
2023-04-29T16:12:47.064Z,153.10
2023-04-29T16:15:16.620Z,165.05
2023-04-29T16:17:44.747Z,156.57
2023-04-29T16:20:13.140Z,145.77
2023-04-29T16:22:41.395Z,137.73
2023-04-29T16:25:11.098Z,146.70
2023-04-29T16:27:39.409Z,151.15
2023-04-29T16:30:09.005Z,171.00
2023-04-29T16:32:38.618Z,142.15
2023-04-29T16:35:07.450Z,140.90
2023-04-29T16:37:35.748Z,144.68
2023-04-29T16:40:04.091Z,124.38
2023-04-29T16:42:32.130Z,131.55
2023-04-29T16:45:02.369Z,137.77
2023-04-29T16:47:30.453Z,158.55
2023-04-29T16:50:00.205Z,133.98
2023-04-29T16:52:28.213Z,146.50
2023-04-29T16:54:57.167Z,148.80
2023-04-29T16:57:26.531Z,160.68
2023-04-29T16:59:54.829Z,138.98
2023-04-29T17:02:23.321Z,144.38
2023-04-29T17:04:52.742Z,149.93
2023-04-29T17:07:22.208Z,149.50
2023-04-29T17:09:50.297Z,156.70
2023-04-29T17:12:18.255Z,170.65
2023-04-29T17:14:48.340Z,187.13
2023-04-29T17:17:16.408Z,198.48
2023-04-29T17:19:44.449Z,181.68
2023-04-29T17:22:12.659Z,206.00
2023-04-29T17:24:44.757Z,202.57
2023-04-29T17:27:13.078Z,209.93
2023-04-29T17:29:41.188Z,201.77
2023-04-29T17:32:11.405Z,214.02
2023-04-29T17:34:39.569Z,204.25
2023-04-29T17:37:07.845Z,213.02
2023-04-29T17:39:36.080Z,204.65
2023-04-29T17:42:05.791Z,208.50
2023-04-29T17:44:33.886Z,190.10
2023-04-29T17:47:02.087Z,185.68
2023-04-29T17:49:30.111Z,186.88
2023-04-29T17:51:59.893Z,192.70
2023-04-29T17:54:29.153Z,190.43
2023-04-29T17:56:57.264Z,181.23
2023-04-29T17:59:26.596Z,75.47
2023-04-29T18:01:54.634Z,58.03
2023-04-29T18:04:22.623Z,5.50
2023-04-29T18:06:50.721Z,79.55
2023-04-29T18:09:18.849Z,78.13
2023-04-29T18:11:46.929Z,96.20
2023-04-29T18:14:14.887Z,146.40
2023-04-29T18:16:44.825Z,124.18
2023-04-29T18:19:12.873Z,106.45
2023-04-29T18:21:41.015Z,140.35
2023-04-29T18:24:09.017Z,116.90
2023-04-29T18:26:37.059Z,125.82
2023-04-29T18:29:05.136Z,120.22
2023-04-29T18:31:35.141Z,126.35
2023-04-29T18:34:04.650Z,114.65
2023-04-29T18:36:33.249Z,116.90
2023-04-29T18:39:01.388Z,134.00
2023-04-29T18:41:29.492Z,130.02
2023-04-29T18:43:57.520Z,142.30
2023-04-29T18:46:25.591Z,135.95
2023-04-29T18:48:53.729Z,145.15
2023-04-29T18:51:23.400Z,156.68
2023-04-29T18:53:51.366Z,155.38
2023-04-29T18:56:19.546Z,166.10
2023-04-29T18:58:47.690Z,151.13
2023-04-29T19:01:15.776Z,167.95
2023-04-29T19:03:43.863Z,163.25
2023-04-29T19:06:12.023Z,167.50
2023-04-29T19:08:44.059Z,173.65
2023-04-29T19:11:12.224Z,159.13
2023-04-29T19:13:41.038Z,175.13
2023-04-29T19:16:12.258Z,161.33
2023-04-29T19:18:40.396Z,175.30
2023-04-29T19:21:10.130Z,164.87
2023-04-29T19:23:38.217Z,168.73
2023-04-29T19:26:08.532Z,172.27
2023-04-29T19:28:37.129Z,165.23
2023-04-29T19:31:05.420Z,159.47
2023-04-29T19:33:33.767Z,159.37
2023-04-29T19:36:02.298Z,157.33
2023-04-29T19:38:30.384Z,89.70
2023-04-29T19:40:58.629Z,91.53
2023-04-29T19:43:28.150Z,97.55
2023-04-29T19:45:56.260Z,94.70
2023-04-29T19:48:24.707Z,91.83
2023-04-29T19:50:52.740Z,78.73
2023-04-29T19:53:20.746Z,85.75
2023-04-29T19:55:51.153Z,96.32
2023-04-29T19:58:19.682Z,86.13
2023-04-29T20:00:49.429Z,82.35
2023-04-29T20:03:19.133Z,78.32
2023-04-29T20:05:47.338Z,84.97
2023-04-29T20:08:15.441Z,83.53
2023-04-29T20:10:43.465Z,94.63
2023-04-29T20:13:11.450Z,94.00
2023-04-29T20:15:39.417Z,97.97
2023-04-29T20:18:08.808Z,94.82
2023-04-29T20:20:36.879Z,94.70
2023-04-29T20:23:05.405Z,104.53
2023-04-29T20:25:33.563Z,98.65
2023-04-29T20:28:01.628Z,99.20
2023-04-29T20:30:29.662Z,107.70
2023-04-29T20:32:57.735Z,105.37
2023-04-29T20:35:27.216Z,95.90
2023-04-29T20:37:55.386Z,106.03
2023-04-29T20:40:23.643Z,105.10
2023-04-29T20:42:51.699Z,107.97
2023-04-29T20:45:19.743Z,111.63
2023-04-29T20:47:48.018Z,123.07
2023-04-29T20:50:16.073Z,125.70
2023-04-29T20:52:49.148Z,113.50
2023-04-29T20:55:17.380Z,122.00
2023-04-29T20:57:45.394Z,127.47
2023-04-29T21:00:14.289Z,128.63
2023-04-29T21:02:42.263Z,140.90
2023-04-29T21:05:10.958Z,143.63
2023-04-29T21:07:39.452Z,136.80
2023-04-29T21:10:09.618Z,150.50
2023-04-29T21:12:37.731Z,146.97
2023-04-29T21:15:06.536Z,146.17
2023-04-29T21:17:34.606Z,147.77
2023-04-29T21:20:02.658Z,144.13
2023-04-29T21:22:30.687Z,149.60
2023-04-29T21:24:58.691Z,142.47
2023-04-29T21:27:28.055Z,148.10
2023-04-29T21:29:56.918Z,106.43
2023-04-29T21:32:24.925Z,142.60
2023-04-29T21:34:53.024Z,137.80
2023-04-29T21:37:21.028Z,123.07
2023-04-29T21:39:49.012Z,111.60
2023-04-29T21:42:21.215Z,121.07
2023-04-29T21:44:50.648Z,110.40
2023-04-29T21:47:18.692Z,109.90
2023-04-29T21:49:48.271Z,109.50
2023-04-29T21:52:16.450Z,112.50
2023-04-29T21:54:44.833Z,53.00
2023-04-29T21:57:13.219Z,38.00
2023-04-29T21:59:41.224Z,42.90
2023-04-29T22:02:21.979Z,47.42
2023-04-29T22:04:51.546Z,47.57
2023-04-29T22:07:20.091Z,44.93
2023-04-29T22:09:49.657Z,41.67
2023-04-29T22:12:18.521Z,33.33
2023-04-29T22:14:46.962Z,39.47
2023-04-29T22:17:16.443Z,37.57
2023-04-29T22:19:44.832Z,43.90
2023-04-29T22:22:13.083Z,46.77
2023-04-29T22:24:41.097Z,43.07
2023-04-29T22:27:09.269Z,41.93
2023-04-29T22:29:37.463Z,49.50
2023-04-29T22:32:06.245Z,46.90
2023-04-29T22:34:35.974Z,51.27
2023-04-29T22:37:03.976Z,46.60
2023-04-29T22:39:31.976Z,53.83
2023-04-29T22:42:00.035Z,51.10
2023-04-29T22:44:28.116Z,62.57
2023-04-29T22:46:56.213Z,40.10
2023-04-29T22:49:25.068Z,43.13
2023-04-29T22:51:54.506Z,49.20
2023-04-29T22:54:22.466Z,27.93
2023-04-29T22:56:50.556Z,25.37
2023-04-29T22:59:18.553Z,25.73
2023-04-29T23:01:46.705Z,38.20
2023-04-29T23:04:14.899Z,33.97
2023-04-29T23:06:42.928Z,62.80
2023-04-29T23:09:12.685Z,22.50
2023-04-29T23:11:40.696Z,24.13
2023-04-29T23:14:08.674Z,28.07
2023-04-29T23:16:36.737Z,30.13
2023-04-29T23:19:04.816Z,27.17
2023-04-29T23:21:34.302Z,34.33
2023-04-29T23:24:03.542Z,36.70
2023-04-29T23:26:33.025Z,61.43
2023-04-29T23:29:01.091Z,29.90
2023-04-29T23:31:29.137Z,43.20
2023-04-29T23:33:57.207Z,48.37
2023-04-29T23:36:25.225Z,34.03
2023-04-29T23:38:53.329Z,36.57
2023-04-29T23:41:21.392Z,35.67
2023-04-29T23:43:50.751Z,27.97
2023-04-29T23:46:18.795Z,29.50
2023-04-29T23:48:46.788Z,31.63
2023-04-29T23:51:14.789Z,35.80
2023-04-29T23:53:42.785Z,13.90
2023-04-29T23:56:11.142Z,10.50
2023-04-29T23:58:39.137Z,13.17
